Аэропорт
Сыктывкар (UUYY)

 UUYY / SCW
ЗЦ Санкт-Петербург
Сыктывкар (UUYY)
Сыктывкар (UUYY)
 61.64700, 50.84510  / 342 ft

 UUYY 161730Z 02003MPS 9999 SCT036CB 22/19 Q1009 R36/CLRD61 NOSIG RMK QFE748/0997
 TAF UUYY 161400Z 1615/1715 06003G08MPS 9999 BKN020CB TEMPO 1615/1621 18005G14MPS 3000 -TSRA FEW007 BKN016CB FM162100 22003MPS 6000 BKN020CB TEMPO 1621/1704 0500 FG BKN003 BKN016CB TEMPO 1709/1715 23005G12MPS -TSRA BKN016CB
UUYY_j_0220
показать схемы
Название сценария Тип сценария Flight Simulator 9 Flight Simulator X Prepar3D v2 Prepar3D v3 Prepar3D v4 Prepar3D v5 xPlane
UUYY-syktyvkar_FS9 бесплатный
UUYY_FSXP3Dv2 бесплатный

Аэродром "Сыктывкар" (UUYY)

Рекомендованные сценарии:

FS2004 от Aniter

P3D/FSX от Aniter 

Схемы:

АИП

Средства связи ОВД:

UUYY_R_APP - Сивкар-Круг - 124.600

UUYY_TWR - Сивкар-Старт - 124.600

UUYY_ATIS - Сивкар-АТИС (русский, английский) - 126.600



2020 © VATRUS division (Privacy Policy)